Skip Navigation LinksHome page > Weather > Current weather Skip Navigation Links

Current Weather

Alert, Nunavut

For information only: do not use for flight planning or navigation.
Latest weather
Observation time Thursday, October 23, 2014 11:00 AM EDT
Local time Thursday, October 23, 2014 11:47 AM EDT
Flight conditions Visual Meteorological Conditions
Winds
Wind direction West (260°)
Wind speed 7 mph
Visibility 10 mi.
Present weather light snow
Sky condition
Ceiling 3,300 ft. overcast
Cloud layer overcast 3,300 ft.
Temperature 3°F
Dewpoint -4°F
Altimeter 29.89 in.Hg
Derived measurements
Relative humidity 71%
Wind chill -9°F
Density altitude -3870 ft.
Sea-level pressure 29.90 in.Hg
METAR CYLT 231500Z 26006KT 10SM -SN OVC033 M16/M20 A2989 RMK SC8 SLP125

Settings

Location code

InnerDrive.Weather 4.0.5399.0 Release CLR 4.0.30319.34014
Copyright ©2014 Inner Drive Technology. All rights reserved. Portions Copyright ©1986-2014 David Braverman.

Find weather

Site navigation


Skip Navigation Links

Place info

Page info

PayPal - The safer, easier way to pay online!

Return home.

Copyright ©2014 Inner Drive Technology. Purveyors of fine, hand-crafted computer software. Page printed 2014-10-23T15:47:20 UTC.